createdAt,value
2023-05-15T00:00:41.435Z,21.81
2023-05-15T00:01:41.428Z,21.81
2023-05-15T00:02:41.499Z,21.81
2023-05-15T00:03:41.524Z,21.81
2023-05-15T00:04:41.501Z,21.81
2023-05-15T00:05:41.442Z,21.81
2023-05-15T00:06:41.432Z,21.81
2023-05-15T00:07:41.438Z,21.81
2023-05-15T00:08:41.438Z,21.81
2023-05-15T00:09:41.441Z,21.81
2023-05-15T00:10:50.453Z,21.81
2023-05-15T00:11:42.446Z,21.80
2023-05-15T00:12:41.434Z,21.80
2023-05-15T00:13:41.438Z,21.81
2023-05-15T00:14:41.424Z,21.81
2023-05-15T00:15:41.419Z,21.81
2023-05-15T00:16:41.488Z,21.81
2023-05-15T00:17:41.472Z,21.81
2023-05-15T00:18:41.457Z,21.80
2023-05-15T00:19:41.406Z,21.81
2023-05-15T00:20:41.391Z,21.80
2023-05-15T00:21:41.410Z,21.80
2023-05-15T00:22:41.385Z,21.80
2023-05-15T00:23:41.367Z,21.80
2023-05-15T00:24:41.381Z,21.81
2023-05-15T00:25:41.357Z,21.80
2023-05-15T00:26:41.361Z,21.80
2023-05-15T00:27:41.358Z,21.80
2023-05-15T00:28:41.363Z,21.80
2023-05-15T00:29:41.358Z,21.80
2023-05-15T00:30:41.386Z,21.81
2023-05-15T00:31:41.416Z,21.80
2023-05-15T00:32:41.396Z,21.80
2023-05-15T00:33:41.368Z,21.81
2023-05-15T00:34:41.347Z,21.80
2023-05-15T00:35:41.369Z,21.80
2023-05-15T00:36:41.352Z,21.81
2023-05-15T00:37:41.359Z,21.80
2023-05-15T00:38:41.347Z,21.80
2023-05-15T00:39:41.336Z,21.80
2023-05-15T00:40:41.332Z,21.80
2023-05-15T00:41:41.468Z,21.80
2023-05-15T00:42:41.332Z,21.80
2023-05-15T00:43:41.345Z,21.80
2023-05-15T00:44:41.308Z,21.80
2023-05-15T00:45:41.327Z,21.80
2023-05-15T00:46:41.317Z,21.80
2023-05-15T00:47:41.357Z,21.80
2023-05-15T00:48:41.309Z,21.80
2023-05-15T00:49:41.316Z,21.80
2023-05-15T00:50:41.317Z,21.80
2023-05-15T00:51:41.318Z,21.80
2023-05-15T00:52:41.327Z,21.80
2023-05-15T00:53:41.345Z,21.80
2023-05-15T00:54:41.326Z,21.80
2023-05-15T00:55:41.330Z,21.80
2023-05-15T00:56:41.325Z,21.79
2023-05-15T00:57:41.326Z,21.80
2023-05-15T00:58:41.332Z,21.80
2023-05-15T00:59:41.333Z,21.79
2023-05-15T01:00:41.361Z,21.80
2023-05-15T01:01:41.333Z,21.79
2023-05-15T01:02:41.433Z,21.79
2023-05-15T01:03:41.337Z,21.79
2023-05-15T01:04:41.346Z,21.79
2023-05-15T01:05:41.363Z,21.79
2023-05-15T01:06:41.347Z,21.79
2023-05-15T01:07:41.344Z,21.79
2023-05-15T01:08:41.368Z,21.79
2023-05-15T01:09:41.353Z,21.79
2023-05-15T01:10:41.350Z,21.79
2023-05-15T01:11:41.355Z,21.79
2023-05-15T01:12:41.370Z,21.79
2023-05-15T01:13:41.386Z,21.80
2023-05-15T01:14:41.374Z,21.79
2023-05-15T01:15:41.372Z,21.79
2023-05-15T01:16:41.386Z,21.79
2023-05-15T01:17:41.433Z,21.78
2023-05-15T01:18:41.430Z,21.80
2023-05-15T01:19:41.483Z,21.79
2023-05-15T01:20:41.375Z,21.79
2023-05-15T01:21:41.377Z,21.79
2023-05-15T01:22:41.382Z,21.79
2023-05-15T01:23:41.397Z,21.79
2023-05-15T01:24:41.395Z,21.79
2023-05-15T01:25:41.395Z,21.79
2023-05-15T01:26:41.395Z,21.79
2023-05-15T01:27:41.405Z,21.78
2023-05-15T01:28:41.396Z,21.78
2023-05-15T01:29:41.412Z,21.79
2023-05-15T01:30:41.400Z,21.78
2023-05-15T01:31:41.431Z,21.78
2023-05-15T01:32:41.475Z,21.78
2023-05-15T01:33:41.405Z,21.78
2023-05-15T01:34:41.394Z,21.78
2023-05-15T01:35:41.407Z,21.79
2023-05-15T01:36:41.414Z,21.78
2023-05-15T01:37:41.511Z,21.78
2023-05-15T01:38:41.429Z,21.78
2023-05-15T01:39:41.421Z,21.78
2023-05-15T01:40:41.427Z,21.78
2023-05-15T01:41:41.425Z,21.78
2023-05-15T01:42:41.439Z,21.78
2023-05-15T01:43:41.435Z,21.78
2023-05-15T01:44:41.427Z,21.78
2023-05-15T01:45:41.442Z,21.78
2023-05-15T01:46:41.469Z,21.78
2023-05-15T01:47:41.493Z,21.78
2023-05-15T01:48:41.441Z,21.78
2023-05-15T01:49:41.459Z,21.78
2023-05-15T01:50:41.480Z,21.78
2023-05-15T01:51:41.469Z,21.78
2023-05-15T01:52:41.473Z,21.78
2023-05-15T01:53:41.481Z,21.78
2023-05-15T01:54:41.488Z,21.77
2023-05-15T01:55:41.519Z,21.77
2023-05-15T01:56:41.494Z,21.78
2023-05-15T01:57:41.493Z,21.77
2023-05-15T01:58:41.493Z,21.77
2023-05-15T01:59:41.504Z,21.78
2023-05-15T02:00:41.508Z,21.77
2023-05-15T02:01:41.540Z,21.78
2023-05-15T02:02:41.615Z,21.77
2023-05-15T02:03:41.609Z,21.77
2023-05-15T02:04:41.544Z,21.77
2023-05-15T02:05:41.542Z,21.77
2023-05-15T02:06:41.548Z,21.78
2023-05-15T02:07:41.550Z,21.77
2023-05-15T02:08:41.556Z,21.78
2023-05-15T02:09:41.572Z,21.77
2023-05-15T02:10:41.581Z,21.77
2023-05-15T02:11:41.597Z,21.77
2023-05-15T02:12:41.603Z,21.76
2023-05-15T02:13:41.614Z,21.77
2023-05-15T02:14:41.623Z,21.77
2023-05-15T02:15:41.620Z,21.76
2023-05-15T02:16:41.682Z,21.77
2023-05-15T02:17:41.678Z,21.76
2023-05-15T02:18:41.660Z,21.76
2023-05-15T02:19:41.662Z,21.76
2023-05-15T02:20:41.665Z,21.77
2023-05-15T02:21:41.671Z,21.77
2023-05-15T02:22:41.697Z,21.77
2023-05-15T02:23:41.700Z,21.76
2023-05-15T02:24:41.808Z,21.77
2023-05-15T02:25:41.739Z,21.76
2023-05-15T02:26:41.703Z,21.77
2023-05-15T02:27:41.711Z,21.76
2023-05-15T02:28:41.728Z,21.77
2023-05-15T02:29:41.735Z,21.76
2023-05-15T02:30:41.747Z,21.76
2023-05-15T02:31:41.793Z,21.77
2023-05-15T02:32:41.798Z,21.77
2023-05-15T02:33:41.865Z,21.77
2023-05-15T02:34:41.785Z,21.77
2023-05-15T02:35:41.792Z,21.75
2023-05-15T02:36:41.792Z,21.76
2023-05-15T02:37:41.804Z,21.76
2023-05-15T02:38:41.800Z,21.76
2023-05-15T02:39:41.808Z,21.76
2023-05-15T02:40:41.822Z,21.76
2023-05-15T02:41:41.838Z,21.77
2023-05-15T02:42:41.848Z,21.76
2023-05-15T02:43:41.857Z,21.75
2023-05-15T02:44:41.860Z,21.77
2023-05-15T02:45:41.906Z,21.76
2023-05-15T02:46:41.867Z,21.75
2023-05-15T02:47:41.927Z,21.76
2023-05-15T02:48:41.882Z,21.75
2023-05-15T02:49:41.899Z,21.75
2023-05-15T02:50:41.889Z,21.75
2023-05-15T02:51:41.911Z,21.75
2023-05-15T02:52:41.911Z,21.75
2023-05-15T02:53:41.925Z,21.76
2023-05-15T02:54:41.940Z,21.75
2023-05-15T02:55:41.945Z,21.75
2023-05-15T02:56:41.964Z,21.75
2023-05-15T02:57:41.967Z,21.75
2023-05-15T02:58:41.976Z,21.76
2023-05-15T02:59:41.984Z,21.75
2023-05-15T03:00:41.998Z,21.75
2023-05-15T03:01:42.068Z,21.75
2023-05-15T03:02:42.077Z,21.75
2023-05-15T03:03:42.034Z,21.76
2023-05-15T03:04:42.116Z,21.75
2023-05-15T03:05:42.037Z,21.75
2023-05-15T03:06:42.056Z,21.75
2023-05-15T03:07:42.052Z,21.75
2023-05-15T03:08:42.069Z,21.75
2023-05-15T03:09:42.067Z,21.74
2023-05-15T03:10:42.097Z,21.74
2023-05-15T03:11:42.092Z,21.75
2023-05-15T03:12:42.094Z,21.75
2023-05-15T03:13:42.101Z,21.74
2023-05-15T03:14:42.116Z,21.74
2023-05-15T03:15:42.118Z,21.74
2023-05-15T03:16:42.149Z,21.75
2023-05-15T03:17:42.147Z,21.75
2023-05-15T03:18:42.212Z,21.74
2023-05-15T03:19:42.146Z,21.75
2023-05-15T03:20:42.153Z,21.74
2023-05-15T03:21:42.182Z,21.74
2023-05-15T03:22:42.189Z,21.74
2023-05-15T03:23:42.189Z,21.75
2023-05-15T03:24:42.197Z,21.74
2023-05-15T03:25:42.220Z,21.74
2023-05-15T03:26:42.259Z,21.74
2023-05-15T03:27:42.226Z,21.74
2023-05-15T03:28:42.434Z,21.73
2023-05-15T03:29:42.244Z,21.74
2023-05-15T03:30:42.252Z,21.74
2023-05-15T03:31:42.286Z,21.74
2023-05-15T03:32:42.345Z,21.74
2023-05-15T03:33:42.277Z,21.74
2023-05-15T03:34:42.293Z,21.74
2023-05-15T03:35:42.286Z,21.74
2023-05-15T03:36:42.290Z,21.74
2023-05-15T03:37:42.310Z,21.74
2023-05-15T03:38:42.320Z,21.74
2023-05-15T03:39:42.323Z,21.74
2023-05-15T03:40:42.334Z,21.75
2023-05-15T03:41:42.339Z,21.74
2023-05-15T03:42:42.344Z,21.74
2023-05-15T03:43:42.364Z,21.73
2023-05-15T03:44:42.387Z,21.74
2023-05-15T03:45:42.375Z,21.73
2023-05-15T03:46:42.427Z,21.74
2023-05-15T03:47:42.404Z,21.74
2023-05-15T03:48:42.403Z,21.73
2023-05-15T03:49:42.402Z,21.73
2023-05-15T03:50:42.406Z,21.75
2023-05-15T03:51:42.426Z,21.73
2023-05-15T03:52:42.507Z,21.73
2023-05-15T03:53:42.447Z,21.74
2023-05-15T03:54:42.437Z,21.73
2023-05-15T03:55:42.447Z,21.73
2023-05-15T03:56:42.462Z,21.73
2023-05-15T03:57:42.465Z,21.73
2023-05-15T03:58:42.476Z,21.73
2023-05-15T03:59:42.477Z,21.73
2023-05-15T04:00:42.492Z,21.73
2023-05-15T04:01:55.367Z,21.73
2023-05-15T04:02:43.539Z,21.72
2023-05-15T04:03:42.542Z,21.73
2023-05-15T04:04:42.782Z,21.72
2023-05-15T04:05:42.533Z,21.73
2023-05-15T04:06:42.475Z,21.72
2023-05-15T04:07:42.492Z,21.73
2023-05-15T04:08:42.483Z,21.73
2023-05-15T04:09:42.482Z,21.73
2023-05-15T04:10:42.477Z,21.73
2023-05-15T04:11:42.484Z,21.72
2023-05-15T04:12:42.486Z,21.73
2023-05-15T04:13:42.555Z,21.72
2023-05-15T04:14:42.475Z,21.72
2023-05-15T04:15:42.487Z,21.73
2023-05-15T04:16:42.563Z,21.72
2023-05-15T04:17:42.536Z,21.73
2023-05-15T04:18:42.531Z,21.73
2023-05-15T04:19:43.132Z,21.72
2023-05-15T04:20:42.473Z,21.72
2023-05-15T04:21:42.472Z,21.72
2023-05-15T04:22:42.482Z,21.72
2023-05-15T04:23:42.463Z,21.72
2023-05-15T04:24:42.451Z,21.72
2023-05-15T04:25:42.461Z,21.72
2023-05-15T04:26:42.545Z,21.71
2023-05-15T04:27:42.456Z,21.72
2023-05-15T04:28:52.523Z,21.72
2023-05-15T04:29:43.444Z,21.71
2023-05-15T04:30:42.444Z,21.72
2023-05-15T04:31:42.504Z,21.72
2023-05-15T04:32:42.497Z,21.71
2023-05-15T04:33:42.443Z,21.72
2023-05-15T04:34:42.446Z,21.72
2023-05-15T04:35:42.440Z,21.71
2023-05-15T04:36:43.092Z,21.71
2023-05-15T04:37:42.441Z,21.72
2023-05-15T04:38:42.431Z,21.72
2023-05-15T04:39:42.426Z,21.72
2023-05-15T04:40:42.430Z,21.72
2023-05-15T04:41:42.429Z,21.72
2023-05-15T04:42:42.429Z,21.72
2023-05-15T04:43:42.437Z,21.72
2023-05-15T04:44:42.423Z,21.71
2023-05-15T04:45:42.473Z,21.71
2023-05-15T04:46:42.432Z,21.72
2023-05-15T04:47:42.535Z,21.71
2023-05-15T04:48:42.413Z,21.72
2023-05-15T04:49:42.417Z,21.71
2023-05-15T04:50:42.440Z,21.71
2023-05-15T04:51:42.387Z,21.72
2023-05-15T04:52:42.385Z,21.71
2023-05-15T04:53:42.373Z,21.71
2023-05-15T04:54:42.387Z,21.71
2023-05-15T04:55:42.368Z,21.71
2023-05-15T04:56:42.366Z,21.71
2023-05-15T04:57:42.351Z,21.71
2023-05-15T04:58:42.354Z,21.71
2023-05-15T04:59:42.349Z,21.71
2023-05-15T05:00:42.328Z,21.71
2023-05-15T05:01:42.356Z,21.71
2023-05-15T05:02:42.384Z,21.70
2023-05-15T05:03:42.381Z,21.71
2023-05-15T05:04:42.315Z,21.70
2023-05-15T05:05:42.326Z,21.71
2023-05-15T05:06:42.334Z,21.71
2023-05-15T05:07:42.340Z,21.72
2023-05-15T05:08:42.368Z,21.71
2023-05-15T05:09:42.382Z,21.71
2023-05-15T05:10:42.370Z,21.71
2023-05-15T05:11:42.387Z,21.72
2023-05-15T05:12:42.391Z,21.73
2023-05-15T05:13:42.391Z,21.73
2023-05-15T05:14:42.567Z,21.72
2023-05-15T05:15:42.448Z,21.73
2023-05-15T05:16:42.408Z,21.74
2023-05-15T05:17:42.481Z,21.75
2023-05-15T05:18:42.466Z,21.76
2023-05-15T05:19:42.425Z,21.74
2023-05-15T05:20:42.431Z,21.73
2023-05-15T05:21:42.440Z,21.75
2023-05-15T05:22:42.526Z,21.76
2023-05-15T05:23:42.448Z,21.77
2023-05-15T05:24:42.434Z,21.80
2023-05-15T05:25:42.440Z,21.81
2023-05-15T05:26:42.531Z,21.83
2023-05-15T05:27:42.487Z,21.85
2023-05-15T05:28:42.521Z,21.85
2023-05-15T05:29:42.573Z,21.86
2023-05-15T05:30:42.621Z,21.85
2023-05-15T05:31:42.676Z,21.84
2023-05-15T05:32:42.726Z,21.85
2023-05-15T05:33:42.679Z,21.84
2023-05-15T05:34:42.677Z,21.84
2023-05-15T05:35:42.683Z,21.83
2023-05-15T05:36:42.705Z,21.82
2023-05-15T05:37:42.704Z,21.81
2023-05-15T05:38:42.679Z,21.80
2023-05-15T05:39:42.687Z,21.79
2023-05-15T05:40:42.702Z,21.78
2023-05-15T05:41:44.273Z,21.78
2023-05-15T05:42:42.664Z,21.77
2023-05-15T05:43:42.691Z,21.76
2023-05-15T05:44:42.667Z,21.76
2023-05-15T05:45:42.642Z,21.75
2023-05-15T05:46:42.691Z,21.75
2023-05-15T05:47:42.690Z,21.73
2023-05-15T05:48:42.621Z,21.74
2023-05-15T05:49:42.607Z,21.73
2023-05-15T05:50:42.613Z,21.72
2023-05-15T05:51:42.606Z,21.73
2023-05-15T05:52:42.602Z,21.73
2023-05-15T05:53:42.595Z,21.72
2023-05-15T05:54:42.584Z,21.71
2023-05-15T05:55:42.556Z,21.71
2023-05-15T05:56:42.555Z,21.72
2023-05-15T05:57:42.566Z,21.72
2023-05-15T05:58:42.550Z,21.71
2023-05-15T05:59:42.549Z,21.71
2023-05-15T06:00:42.527Z,21.72
2023-05-15T06:01:42.623Z,21.71
2023-05-15T06:02:42.671Z,21.70
2023-05-15T06:03:42.620Z,21.70
2023-05-15T06:04:42.505Z,21.71
2023-05-15T06:05:42.502Z,21.71
2023-05-15T06:06:42.480Z,21.71
2023-05-15T06:07:42.482Z,21.71
2023-05-15T06:08:42.492Z,21.72
2023-05-15T06:09:42.496Z,21.72
2023-05-15T06:10:42.532Z,21.72
2023-05-15T06:11:42.518Z,21.71
2023-05-15T06:12:42.531Z,21.71
2023-05-15T06:13:42.550Z,21.72
2023-05-15T06:14:42.569Z,21.71
2023-05-15T06:15:42.574Z,21.72
2023-05-15T06:16:42.627Z,21.71
2023-05-15T06:17:42.638Z,21.71
2023-05-15T06:18:42.668Z,21.71
2023-05-15T06:19:42.608Z,21.72
2023-05-15T06:20:42.612Z,21.73
2023-05-15T06:21:42.619Z,21.76
2023-05-15T06:22:42.632Z,21.76
2023-05-15T06:23:42.646Z,21.75
2023-05-15T06:24:42.663Z,21.76
2023-05-15T06:25:42.664Z,21.77
2023-05-15T06:26:42.697Z,21.76
2023-05-15T06:27:42.741Z,21.76
2023-05-15T06:28:42.734Z,21.76
2023-05-15T06:29:42.737Z,21.77
2023-05-15T06:30:42.800Z,21.76
2023-05-15T06:31:42.760Z,21.75
2023-05-15T06:32:42.786Z,21.75
2023-05-15T06:33:42.891Z,21.74
2023-05-15T06:34:42.800Z,21.75
2023-05-15T06:35:42.807Z,21.75
2023-05-15T06:36:42.838Z,21.75
2023-05-15T06:37:42.852Z,21.74
2023-05-15T06:38:42.861Z,21.75
2023-05-15T06:39:42.865Z,21.74
2023-05-15T06:40:42.896Z,21.75
2023-05-15T06:41:42.889Z,21.74
2023-05-15T06:42:42.948Z,21.74
2023-05-15T06:43:42.900Z,21.74
2023-05-15T06:44:42.920Z,21.73
2023-05-15T06:45:42.972Z,21.74
2023-05-15T06:46:42.968Z,21.74
2023-05-15T06:47:42.982Z,21.73
2023-05-15T06:48:42.959Z,21.73
2023-05-15T06:49:42.967Z,21.73
2023-05-15T06:50:42.981Z,21.73
2023-05-15T06:51:42.977Z,21.73
2023-05-15T06:52:42.992Z,21.73
2023-05-15T06:53:43.015Z,21.72
2023-05-15T06:54:42.992Z,21.73
2023-05-15T06:55:43.021Z,21.72
2023-05-15T06:56:43.121Z,21.72
2023-05-15T06:57:43.036Z,21.72
2023-05-15T06:58:43.037Z,21.73
2023-05-15T06:59:43.069Z,21.72
2023-05-15T07:00:43.709Z,21.71
2023-05-15T07:01:43.098Z,21.72
2023-05-15T07:02:43.115Z,21.72
2023-05-15T07:03:43.138Z,21.71
2023-05-15T07:04:43.168Z,21.72
2023-05-15T07:05:43.105Z,21.72
2023-05-15T07:06:43.121Z,21.72
2023-05-15T07:07:43.127Z,21.73
2023-05-15T07:08:43.140Z,21.72
2023-05-15T07:09:43.135Z,21.72
2023-05-15T07:10:43.148Z,21.72
2023-05-15T07:11:43.159Z,21.73
2023-05-15T07:12:43.168Z,21.72
2023-05-15T07:13:43.174Z,21.72
2023-05-15T07:14:43.185Z,21.73
2023-05-15T07:15:43.266Z,21.74
2023-05-15T07:16:43.181Z,21.75
2023-05-15T07:17:43.247Z,21.76
2023-05-15T07:18:43.409Z,21.77
2023-05-15T07:19:43.195Z,21.79
2023-05-15T07:20:43.189Z,21.79
2023-05-15T07:21:43.241Z,21.81
2023-05-15T07:22:54.989Z,21.83
2023-05-15T07:23:44.247Z,21.83
2023-05-15T07:24:43.244Z,21.83
2023-05-15T07:25:44.720Z,21.81
2023-05-15T07:26:54.134Z,21.81
2023-05-15T07:27:44.242Z,21.79
2023-05-15T07:28:43.244Z,21.78
2023-05-15T07:29:43.236Z,21.78
2023-05-15T07:30:43.232Z,21.76
2023-05-15T07:31:43.237Z,21.76
2023-05-15T07:32:43.268Z,21.77
2023-05-15T07:33:43.223Z,21.76
2023-05-15T07:34:43.222Z,21.75
2023-05-15T07:35:43.231Z,21.74
2023-05-15T07:36:43.228Z,21.74
2023-05-15T07:37:43.265Z,21.75
2023-05-15T07:38:43.244Z,21.73
2023-05-15T07:39:43.263Z,21.73
2023-05-15T07:40:43.775Z,21.73
2023-05-15T07:41:43.199Z,21.74
2023-05-15T07:42:43.200Z,21.73
2023-05-15T07:43:43.228Z,21.72
2023-05-15T07:44:45.020Z,21.72
2023-05-15T07:45:43.321Z,21.73
2023-05-15T07:46:43.291Z,21.73
2023-05-15T07:47:43.211Z,21.73
2023-05-15T07:48:43.193Z,21.73
2023-05-15T07:49:43.186Z,21.74
2023-05-15T07:50:43.186Z,21.73
2023-05-15T07:51:43.195Z,21.74
2023-05-15T07:52:43.702Z,21.73
2023-05-15T07:53:43.182Z,21.73
2023-05-15T07:54:43.199Z,21.73
2023-05-15T07:55:43.190Z,21.74
2023-05-15T07:56:43.181Z,21.73
2023-05-15T07:57:43.193Z,21.74
2023-05-15T07:58:43.716Z,21.74
2023-05-15T07:59:43.775Z,21.74
2023-05-15T08:00:43.233Z,21.75
2023-05-15T08:01:43.193Z,21.75
2023-05-15T08:02:43.243Z,21.74
2023-05-15T08:03:43.225Z,21.74
2023-05-15T08:04:43.432Z,21.74
2023-05-15T08:05:43.186Z,21.74
2023-05-15T08:06:44.529Z,21.73
2023-05-15T08:07:43.166Z,21.74
2023-05-15T08:08:43.161Z,21.74
2023-05-15T08:09:43.260Z,21.75
2023-05-15T08:10:44.702Z,21.75
2023-05-15T08:11:43.157Z,21.76
2023-05-15T08:12:43.149Z,21.80
2023-05-15T08:13:43.246Z,21.80
2023-05-15T08:14:43.182Z,21.80
2023-05-15T08:15:43.161Z,21.81
2023-05-15T08:16:43.158Z,21.82
2023-05-15T08:17:43.222Z,21.83
2023-05-15T08:18:43.194Z,21.82
2023-05-15T08:19:43.142Z,21.83
2023-05-15T08:20:43.151Z,21.83
2023-05-15T08:21:43.153Z,21.83
2023-05-15T08:22:43.162Z,21.84
2023-05-15T08:23:43.135Z,21.85
2023-05-15T08:24:43.141Z,21.85
2023-05-15T08:25:43.134Z,21.84
2023-05-15T08:26:43.137Z,21.84
2023-05-15T08:27:43.134Z,21.82
2023-05-15T08:28:43.181Z,21.82
2023-05-15T08:29:43.140Z,21.81
2023-05-15T08:30:43.137Z,21.80
2023-05-15T08:31:43.263Z,21.79
2023-05-15T08:32:43.169Z,21.76
2023-05-15T08:33:43.149Z,21.72
2023-05-15T08:34:43.700Z,21.68
2023-05-15T08:35:43.262Z,21.65
2023-05-15T08:36:43.156Z,21.66
2023-05-15T08:37:43.706Z,21.66
2023-05-15T08:38:43.818Z,21.66
2023-05-15T08:39:43.165Z,21.66
2023-05-15T08:40:43.199Z,21.66
2023-05-15T08:41:43.198Z,21.67
2023-05-15T08:42:43.227Z,21.67
2023-05-15T08:43:43.233Z,21.68
2023-05-15T08:44:43.268Z,21.68
2023-05-15T08:45:43.270Z,21.68
2023-05-15T08:46:44.227Z,21.69
2023-05-15T08:47:43.321Z,21.69
2023-05-15T08:48:43.354Z,21.69
2023-05-15T08:49:43.300Z,21.69
2023-05-15T08:50:43.331Z,21.69
2023-05-15T08:51:43.342Z,21.70
2023-05-15T08:52:43.352Z,21.71
2023-05-15T08:53:43.372Z,21.70
2023-05-15T08:54:43.742Z,21.70
2023-05-15T08:55:43.378Z,21.71
2023-05-15T08:56:43.404Z,21.72
2023-05-15T08:57:43.410Z,21.71
2023-05-15T08:58:43.421Z,21.71
2023-05-15T08:59:44.283Z,21.71
2023-05-15T09:00:43.434Z,21.71
2023-05-15T09:01:43.474Z,21.72
2023-05-15T09:02:43.497Z,21.72
2023-05-15T09:03:43.510Z,21.72
2023-05-15T09:04:43.464Z,21.72
2023-05-15T09:05:43.466Z,21.72
2023-05-15T09:06:43.507Z,21.73
2023-05-15T09:07:43.480Z,21.72
2023-05-15T09:08:43.498Z,21.73
2023-05-15T09:09:43.489Z,21.73
2023-05-15T09:10:43.511Z,21.73
2023-05-15T09:11:43.515Z,21.74
2023-05-15T09:12:43.529Z,21.73
2023-05-15T09:13:43.544Z,21.73
2023-05-15T09:14:43.536Z,21.73
2023-05-15T09:15:44.446Z,21.73
2023-05-15T09:16:43.572Z,21.76
2023-05-15T09:17:43.638Z,21.80
2023-05-15T09:18:43.684Z,21.84
2023-05-15T09:19:43.600Z,21.88
2023-05-15T09:20:43.599Z,21.97
2023-05-15T09:21:43.630Z,22.06
2023-05-15T09:22:43.690Z,22.09
2023-05-15T09:23:44.298Z,22.11
2023-05-15T09:24:44.208Z,22.10
2023-05-15T09:25:43.619Z,22.08
2023-05-15T09:26:50.291Z,22.06
2023-05-15T09:27:43.670Z,22.03
2023-05-15T09:28:44.282Z,22.01
2023-05-15T09:29:43.596Z,21.98
2023-05-15T09:30:43.593Z,21.97
2023-05-15T09:31:45.369Z,21.94
2023-05-15T09:32:43.745Z,21.93
2023-05-15T09:33:43.576Z,21.92
2023-05-15T09:34:43.581Z,21.90
2023-05-15T09:35:43.572Z,21.88
2023-05-15T09:36:44.579Z,21.87
2023-05-15T09:37:43.803Z,21.85
2023-05-15T09:38:43.549Z,21.85
2023-05-15T09:39:43.594Z,21.84
2023-05-15T09:40:43.587Z,21.83
2023-05-15T09:41:44.551Z,21.82
2023-05-15T09:42:43.584Z,21.82
2023-05-15T09:43:43.562Z,21.81
2023-05-15T09:44:43.573Z,21.81
2023-05-15T09:45:44.323Z,21.81
2023-05-15T09:46:44.962Z,21.80
2023-05-15T09:47:43.873Z,21.79
2023-05-15T09:48:43.880Z,21.79
2023-05-15T09:49:43.844Z,21.79
2023-05-15T09:50:43.835Z,21.79
2023-05-15T09:51:43.846Z,21.79
2023-05-15T09:52:43.913Z,21.78
2023-05-15T09:53:43.904Z,21.78
2023-05-15T09:54:43.995Z,21.79
2023-05-15T09:55:43.946Z,21.79
2023-05-15T09:56:43.969Z,21.79
2023-05-15T09:57:45.834Z,21.78
2023-05-15T09:58:44.799Z,21.79
2023-05-15T09:59:44.064Z,21.78
2023-05-15T10:00:48.657Z,21.78
2023-05-15T10:01:45.332Z,21.78
2023-05-15T10:02:45.121Z,21.77
2023-05-15T10:03:44.796Z,21.77
2023-05-15T10:04:44.073Z,21.78
2023-05-15T10:05:44.629Z,21.78
2023-05-15T10:06:44.119Z,21.78
2023-05-15T10:07:44.103Z,21.78
2023-05-15T10:08:44.116Z,21.78
2023-05-15T10:09:44.121Z,21.78
2023-05-15T10:10:44.117Z,21.78
2023-05-15T10:11:44.141Z,21.77
2023-05-15T10:12:45.534Z,21.77
2023-05-15T10:13:45.296Z,21.78
2023-05-15T10:14:44.392Z,21.79
2023-05-15T10:15:44.469Z,21.80
2023-05-15T10:16:45.500Z,21.81
2023-05-15T10:17:44.509Z,21.80
2023-05-15T10:18:44.631Z,21.81
2023-05-15T10:19:57.147Z,21.81
2023-05-15T10:20:45.544Z,21.81
2023-05-15T10:21:44.582Z,21.82
2023-05-15T10:22:44.577Z,21.83
2023-05-15T10:23:44.557Z,21.83
2023-05-15T10:24:44.543Z,21.83
2023-05-15T10:25:44.562Z,21.81
2023-05-15T10:26:44.548Z,21.82
2023-05-15T10:27:44.554Z,21.82
2023-05-15T10:28:45.256Z,21.83
2023-05-15T10:29:44.554Z,21.81
2023-05-15T10:30:44.557Z,21.81
2023-05-15T10:31:44.675Z,21.81
2023-05-15T10:32:59.323Z,21.80
2023-05-15T10:33:47.804Z,21.78
2023-05-15T10:34:44.552Z,21.79
2023-05-15T10:35:44.822Z,21.79
2023-05-15T10:36:45.361Z,21.80
2023-05-15T10:37:44.554Z,21.80
2023-05-15T10:38:44.583Z,21.80
2023-05-15T10:39:44.563Z,21.80
2023-05-15T10:40:44.598Z,21.80
2023-05-15T10:41:44.574Z,21.80
2023-05-15T10:42:49.313Z,21.80
2023-05-15T10:43:44.580Z,21.80
2023-05-15T10:44:44.584Z,21.81
2023-05-15T10:45:44.573Z,21.80
2023-05-15T10:46:44.616Z,21.80
2023-05-15T10:47:44.621Z,21.79
2023-05-15T10:48:44.630Z,21.79
2023-05-15T10:49:46.326Z,21.80
2023-05-15T10:50:45.288Z,21.80
2023-05-15T10:51:44.784Z,21.80
2023-05-15T10:52:44.784Z,21.81
2023-05-15T10:53:45.336Z,21.81
2023-05-15T10:54:44.813Z,21.81
2023-05-15T10:55:48.312Z,21.81
2023-05-15T10:56:45.771Z,21.81
2023-05-15T10:57:44.823Z,21.82
2023-05-15T10:58:45.794Z,21.81
2023-05-15T10:59:44.812Z,21.81
2023-05-15T11:00:44.860Z,21.82
2023-05-15T11:01:44.875Z,21.81
2023-05-15T11:02:44.827Z,21.84
2023-05-15T11:03:49.394Z,21.85
2023-05-15T11:04:45.923Z,21.85
2023-05-15T11:05:44.829Z,21.86
2023-05-15T11:06:44.839Z,21.85
2023-05-15T11:07:44.832Z,21.86
2023-05-15T11:08:44.841Z,21.85
2023-05-15T11:09:44.828Z,21.85
2023-05-15T11:10:44.867Z,21.85
2023-05-15T11:11:44.852Z,21.86
2023-05-15T11:12:44.838Z,21.86
2023-05-15T11:13:44.853Z,21.86
2023-05-15T11:14:44.835Z,21.86
2023-05-15T11:15:44.928Z,21.87
2023-05-15T11:16:44.841Z,21.87
2023-05-15T11:17:44.848Z,21.88
2023-05-15T11:18:44.859Z,21.87
2023-05-15T11:19:44.826Z,21.88
2023-05-15T11:20:44.830Z,21.88
2023-05-15T11:21:44.824Z,21.87
2023-05-15T11:22:44.815Z,21.88
2023-05-15T11:23:44.834Z,21.88
2023-05-15T11:24:44.830Z,21.88
2023-05-15T11:25:44.826Z,21.88
2023-05-15T11:26:44.815Z,21.87
2023-05-15T11:27:44.855Z,21.88
2023-05-15T11:28:44.807Z,21.88
2023-05-15T11:29:44.798Z,21.88
2023-05-15T11:30:44.821Z,21.87
2023-05-15T11:31:44.786Z,21.86
2023-05-15T11:32:44.820Z,21.86
2023-05-15T11:33:44.782Z,21.85
2023-05-15T11:34:44.780Z,21.85
2023-05-15T11:35:44.771Z,21.85
2023-05-15T11:36:44.774Z,21.84
2023-05-15T11:37:44.762Z,21.84
2023-05-15T11:38:44.787Z,21.84
2023-05-15T11:39:44.778Z,21.83
2023-05-15T11:40:44.776Z,21.83
2023-05-15T11:41:44.777Z,21.83
2023-05-15T11:42:44.780Z,21.83
2023-05-15T11:43:44.780Z,21.82
2023-05-15T11:44:44.780Z,21.83
2023-05-15T11:45:44.806Z,21.82
2023-05-15T11:46:44.828Z,21.82
2023-05-15T11:47:44.858Z,21.83
2023-05-15T11:48:44.856Z,21.82
2023-05-15T11:49:44.860Z,21.83
2023-05-15T11:50:44.882Z,21.82
2023-05-15T11:51:44.882Z,21.82
2023-05-15T11:52:44.889Z,21.83
2023-05-15T11:53:44.911Z,21.83
2023-05-15T11:54:44.916Z,21.82
2023-05-15T11:55:44.944Z,21.82
2023-05-15T11:56:44.950Z,21.83
2023-05-15T11:57:44.956Z,21.82
2023-05-15T11:58:45.716Z,21.83
2023-05-15T11:59:44.985Z,21.82
2023-05-15T12:00:45.017Z,21.82
2023-05-15T12:01:45.017Z,21.83
2023-05-15T12:02:45.135Z,21.82
2023-05-15T12:03:45.183Z,21.82
2023-05-15T12:04:45.085Z,21.82
2023-05-15T12:05:57.614Z,21.83
2023-05-15T12:06:46.072Z,21.82
2023-05-15T12:07:45.075Z,21.82
2023-05-15T12:08:45.091Z,21.82
2023-05-15T12:09:45.062Z,21.83
2023-05-15T12:10:45.061Z,21.82
2023-05-15T12:11:45.058Z,21.82
2023-05-15T12:12:45.051Z,21.82
2023-05-15T12:13:45.054Z,21.82
2023-05-15T12:14:45.109Z,21.83
2023-05-15T12:15:45.033Z,21.83
2023-05-15T12:16:45.043Z,21.82
2023-05-15T12:17:45.080Z,21.83
2023-05-15T12:18:45.048Z,21.83
2023-05-15T12:19:45.026Z,21.83
2023-05-15T12:20:45.020Z,21.83
2023-05-15T12:21:45.002Z,21.83
2023-05-15T12:22:45.010Z,21.83
2023-05-15T12:23:48.726Z,21.84
2023-05-15T12:24:45.992Z,21.83
2023-05-15T12:25:44.996Z,21.83
2023-05-15T12:26:44.972Z,21.83
2023-05-15T12:27:44.968Z,21.83
2023-05-15T12:28:44.964Z,21.84
2023-05-15T12:29:44.994Z,21.83
2023-05-15T12:30:44.946Z,21.84
2023-05-15T12:31:44.994Z,21.85
2023-05-15T12:32:44.963Z,21.85
2023-05-15T12:33:44.948Z,21.84
2023-05-15T12:34:44.960Z,21.84
2023-05-15T12:35:44.990Z,21.84
2023-05-15T12:36:44.970Z,21.85
2023-05-15T12:37:44.944Z,21.87
2023-05-15T12:38:44.945Z,21.87
2023-05-15T12:39:44.942Z,21.88
2023-05-15T12:40:44.965Z,21.90
2023-05-15T12:41:46.038Z,21.90
2023-05-15T12:42:44.944Z,21.90
2023-05-15T12:43:44.938Z,21.90
2023-05-15T12:44:44.932Z,21.90
2023-05-15T12:45:44.953Z,21.89
2023-05-15T12:46:44.943Z,21.90
2023-05-15T12:47:44.992Z,21.89
2023-05-15T12:48:44.936Z,21.89
2023-05-15T12:49:44.940Z,21.89
2023-05-15T12:50:44.941Z,21.89
2023-05-15T12:51:44.974Z,21.88
2023-05-15T12:52:45.028Z,21.88